Time;durP1;ratioP1;P1;durP2;ratioP2;P2;SDS_P1;SDS_P2;PMS_P1;PMS_P2;Temp;Humidity;BMP_temperature;BMP_pressure;BME280_temperature;BME280_humidity;BME280_pressure;Samples;Min_cycle;Max_cycle;Signal;HPM_P1;HPM_P2
2022/07/14 00:07:59;;;;;;;2.45;0.40;;;16.90;99.90;;;;;;20866291;28;20044;-80
2022/07/14 00:18:00;;;;;;;4.72;1.63;;;16.90;99.90;;;;;;20855583;28;20025;-80
2022/07/14 00:28:02;;;;;;;2.97;0.28;;;16.80;99.90;;;;;;20861535;28;20151;-80
2022/07/14 00:38:05;;;;;;;0.82;0.30;;;16.70;99.90;;;;;;20873554;28;20491;-80
2022/07/14 00:48:06;;;;;;;1.63;0.85;;;16.70;99.90;;;;;;20880445;28;20086;-80
2022/07/14 00:58:07;;;;;;;0.70;0.35;;;16.60;99.90;;;;;;20857860;28;20068;-80
2022/07/14 01:08:09;;;;;;;1.20;0.43;;;16.40;99.90;;;;;;20859278;28;20074;-80
2022/07/14 01:18:10;;;;;;;1.30;0.47;;;16.40;99.90;;;;;;20864276;28;20052;-80
2022/07/14 01:28:11;;;;;;;1.35;0.57;;;16.30;99.90;;;;;;20851617;28;20037;-81
2022/07/14 01:38:12;;;;;;;1.60;0.55;;;16.10;99.90;;;;;;20860834;28;20040;-80
2022/07/14 01:48:13;;;;;;;1.65;0.82;;;16.10;99.90;;;;;;20854155;28;20058;-80
2022/07/14 01:58:14;;;;;;;1.60;0.40;;;16.00;99.90;;;;;;20859092;28;20043;-80
2022/07/14 02:08:15;;;;;;;2.90;0.50;;;16.00;99.90;;;;;;20854038;28;20287;-80
2022/07/14 02:18:16;;;;;;;1.77;0.63;;;15.80;99.90;;;;;;20860816;28;20337;-80
2022/07/14 02:28:17;;;;;;;0.85;0.40;;;15.70;99.90;;;;;;20864174;28;20052;-81
2022/07/14 02:38:18;;;;;;;3.67;1.88;;;15.50;99.90;;;;;;20872076;28;20116;-81
2022/07/14 02:48:19;;;;;;;0.75;0.30;;;15.30;99.90;;;;;;20866084;28;20047;-81
2022/07/14 02:58:22;;;;;;;1.08;0.47;;;15.20;99.90;;;;;;20868494;28;20040;-81
2022/07/14 03:08:23;;;;;;;0.57;0.20;;;15.00;99.90;;;;;;20864922;28;20143;-81
2022/07/14 03:18:24;;;;;;;3.13;0.88;;;15.00;99.90;;;;;;20868148;28;20076;-81
2022/07/14 03:28:25;;;;;;;0.70;0.22;;;14.80;99.90;;;;;;20864155;28;20060;-81
2022/07/14 03:38:26;;;;;;;2.17;1.25;;;14.70;99.90;;;;;;20857512;28;20036;-80
2022/07/14 03:48:27;;;;;;;1.10;0.50;;;14.80;99.90;;;;;;20875296;28;20463;-81
2022/07/14 03:58:28;;;;;;;0.90;0.30;;;14.60;99.90;;;;;;20865729;28;20041;-82
2022/07/14 04:08:29;;;;;;;1.23;0.55;;;14.50;99.90;;;;;;20865746;28;20559;-81
2022/07/14 04:18:30;;;;;;;0.90;0.30;;;14.30;99.90;;;;;;20864248;28;20044;-81
2022/07/14 04:28:31;;;;;;;1.17;0.50;;;14.40;99.90;;;;;;20861110;28;20071;-81
2022/07/14 04:38:33;;;;;;;0.75;0.40;;;14.60;99.90;;;;;;20856624;28;20441;-81
2022/07/14 04:58:56;;;;;;;1.48;0.50;;;14.60;99.90;;;;;;20848529;28;20063;-80
2022/07/14 05:08:57;;;;;;;6.88;0.68;;;14.90;99.90;;;;;;20859217;28;20110;-81
2022/07/14 05:18:58;;;;;;;0.77;0.20;;;15.50;99.90;;;;;;20853504;28;22187;-80
2022/07/14 05:28:59;;;;;;;0.82;0.50;;;15.90;99.90;;;;;;20859204;28;20036;-80
2022/07/14 05:39:01;;;;;;;2.47;0.30;;;16.50;99.90;;;;;;20858021;28;20041;-80
2022/07/14 05:49:02;;;;;;;1.20;0.43;;;17.00;99.90;;;;;;20872413;28;20094;-80
2022/07/14 05:59:03;;;;;;;1.30;0.40;;;17.50;99.90;;;;;;20882180;28;20060;-80
2022/07/14 06:09:04;;;;;;;0.77;0.20;;;17.90;99.90;;;;;;20887060;28;20491;-80
2022/07/14 06:19:05;;;;;;;0.98;0.50;;;18.30;99.90;;;;;;20877109;28;20107;-80
2022/07/14 06:29:06;;;;;;;1.42;0.30;;;18.20;99.90;;;;;;20879226;28;20066;-80
2022/07/14 06:39:07;;;;;;;0.93;0.35;;;18.60;99.90;;;;;;20892182;28;20090;-79
2022/07/14 06:49:08;;;;;;;4.57;1.60;;;18.90;99.90;;;;;;20881779;28;20044;-80
2022/07/14 06:59:09;;;;;;;1.75;0.40;;;18.90;99.90;;;;;;20887953;28;20049;-79
2022/07/14 07:09:15;;;;;;;1.52;0.50;;;19.00;99.90;;;;;;20937777;28;22103;-78
2022/07/14 07:19:17;;;;;;;0.95;0.50;;;18.70;99.90;;;;;;20886984;28;20036;-79
2022/07/14 07:29:18;;;;;;;1.30;0.30;;;19.00;99.90;;;;;;20904766;28;20044;-79
2022/07/14 07:39:19;;;;;;;2.10;0.30;;;18.80;99.90;;;;;;20876999;28;20072;-79
2022/07/14 07:49:20;;;;;;;1.17;0.30;;;18.90;99.90;;;;;;20893216;28;20041;-79
2022/07/14 07:59:21;;;;;;;0.80;0.30;;;19.00;99.90;;;;;;20871140;28;20040;-79
2022/07/14 08:09:22;;;;;;;2.60;0.30;;;18.90;99.90;;;;;;20877305;28;20052;-79
2022/07/14 08:19:24;;;;;;;2.78;1.52;;;18.90;99.90;;;;;;20884758;28;20044;-79
2022/07/14 08:29:25;;;;;;;0.40;0.15;;;19.10;99.90;;;;;;20887677;28;20037;-79
2022/07/14 08:39:26;;;;;;;0.55;0.13;;;19.50;99.90;;;;;;20860408;28;20070;-79
2022/07/14 08:49:27;;;;;;;0.55;0.15;;;19.50;99.90;;;;;;20879160;28;20146;-79
2022/07/14 08:59:29;;;;;;;0.95;0.28;;;19.60;99.90;;;;;;20858748;28;20192;-79
2022/07/14 09:09:31;;;;;;;1.38;0.38;;;19.80;99.90;;;;;;20834636;28;20218;-79
2022/07/14 09:19:32;;;;;;;0.60;0.20;;;20.30;99.90;;;;;;20874199;28;20028;-79
2022/07/14 09:29:34;;;;;;;0.75;0.40;;;20.70;99.90;;;;;;20859886;28;20083;-79
2022/07/14 09:39:35;;;;;;;0.57;0.22;;;20.80;99.90;;;;;;20875553;28;20447;-79
2022/07/14 09:49:37;;;;;;;0.68;0.22;;;21.10;99.90;;;;;;20845708;28;20083;-79
2022/07/14 09:59:49;;;;;;;1.48;0.30;;;21.40;99.90;;;;;;20859026;28;20114;-79
2022/07/14 10:10:04;;;;;;;1.08;0.30;;;21.90;99.90;;;;;;20897637;28;20178;-78
2022/07/14 10:20:08;;;;;;;0.70;0.20;;;21.90;99.90;;;;;;20907082;28;20362;-78
2022/07/14 10:30:11;;;;;;;0.70;0.25;;;21.90;99.90;;;;;;20873515;28;20045;-77
2022/07/14 10:40:39;;;;;;;1.15;0.40;;;22.10;99.90;;;;;;20871019;28;20052;-80
2022/07/14 10:50:40;;;;;;;1.33;0.30;;;22.40;99.90;;;;;;20893646;28;20757;-76
2022/07/14 11:10:42;;;;;;;4.43;0.57;;;22.30;99.90;;;;;;20878007;28;20045;-76
2022/07/14 11:20:52;;;;;;;0.20;0.03;;;22.10;99.90;;;;;;20878532;28;20158;-77
2022/07/14 11:31:16;;;;;;;2.40;0.40;;;22.00;99.90;;;;;;20893578;28;20040;-77
2022/07/14 11:41:23;;;;;;;0.88;0.25;;;21.90;99.90;;;;;;20875048;28;20622;-77
2022/07/14 11:51:29;;;;;;;;;;;22.30;99.90;;;;;;20829763;28;20048;-77
2022/07/14 12:01:31;;;;;;;2.28;0.35;;;22.20;99.90;;;;;;20862767;28;19917;-77
2022/07/14 12:11:32;;;;;;;1.38;0.17;;;21.80;99.90;;;;;;20828445;28;20170;-77
2022/07/14 12:21:35;;;;;;;1.33;0.30;;;21.90;99.90;;;;;;20857896;28;20028;-77
2022/07/14 12:31:39;;;;;;;3.35;1.35;;;22.30;99.90;;;;;;20850326;28;20113;-76
2022/07/14 12:41:43;;;;;;;0.40;0.20;;;22.50;99.90;;;;;;20844065;28;20132;-77
2022/07/14 12:51:44;;;;;;;0.60;0.20;;;22.30;99.90;;;;;;20855453;28;20128;-77
2022/07/14 13:01:48;;;;;;;0.63;0.35;;;22.20;99.90;;;;;;20867940;28;20533;-77
2022/07/14 13:11:49;;;;;;;0.93;0.80;;;22.70;99.90;;;;;;20833412;28;20569;-77
2022/07/14 13:21:59;;;;;;;5.70;0.30;;;23.20;99.90;;;;;;20885843;28;20052;-77
2022/07/14 13:32:00;;;;;;;0.55;0.13;;;23.30;99.90;;;;;;20853417;28;21611;-77
2022/07/14 13:42:03;;;;;;;0.17;0.10;;;23.00;99.90;;;;;;20862208;28;20075;-76
2022/07/14 13:52:10;;;;;;;1.70;0.63;;;23.10;99.90;;;;;;20858586;28;20163;-77
2022/07/14 14:02:11;;;;;;;1.85;0.30;;;23.60;99.90;;;;;;20863787;28;20790;-77
2022/07/14 14:12:12;;;;;;;0.77;0.50;;;23.30;99.90;;;;;;20863850;28;20040;-76
2022/07/14 14:22:17;;;;;;;0.30;0.20;;;22.90;99.50;;;;;;20909204;28;20032;-77
2022/07/14 14:32:18;;;;;;;0.55;0.20;;;22.90;99.90;;;;;;20891776;28;20639;-76
2022/07/14 14:42:19;;;;;;;0.10;0.08;;;23.00;99.90;;;;;;20895669;28;20040;-76
2022/07/14 14:52:22;;;;;;;0.70;0.20;;;22.90;99.20;;;;;;20893352;28;20098;-76
2022/07/14 15:02:27;;;;;;;0.90;0.30;;;22.80;99.50;;;;;;20887914;28;20036;-76
2022/07/14 15:12:28;;;;;;;0.35;0.20;;;23.10;98.60;;;;;;20908620;28;20095;-77
2022/07/14 15:22:29;;;;;;;1.30;0.25;;;23.10;98.50;;;;;;20889594;28;20041;-76
2022/07/14 15:32:30;;;;;;;0.55;0.20;;;23.10;98.30;;;;;;20896237;28;20036;-76
2022/07/14 15:42:31;;;;;;;0.50;0.30;;;22.90;97.70;;;;;;20877168;28;20041;-76
2022/07/14 15:52:34;;;;;;;0.43;0.10;;;22.70;97.80;;;;;;20898793;28;20086;-76
2022/07/14 16:02:35;;;;;;;1.02;0.73;;;22.60;98.40;;;;;;20888413;28;20667;-76
2022/07/14 16:12:37;;;;;;;0.77;0.20;;;22.50;99.40;;;;;;20877808;28;20052;-78
2022/07/14 16:22:38;;;;;;;0.50;0.20;;;22.50;99.90;;;;;;20900368;28;20093;-78
2022/07/14 16:32:39;;;;;;;0.50;0.30;;;22.30;99.90;;;;;;20898530;28;20037;-76
2022/07/14 16:42:43;;;;;;;1.48;0.80;;;22.00;99.90;;;;;;20886273;28;20048;-77
2022/07/14 16:52:44;;;;;;;1.35;0.47;;;21.80;99.90;;;;;;20903166;28;20102;-76
2022/07/14 17:02:46;;;;;;;1.73;0.40;;;21.60;99.90;;;;;;20896912;28;20052;-77
2022/07/14 17:12:47;;;;;;;1.58;0.70;;;21.30;99.90;;;;;;20891124;28;20529;-78
2022/07/14 17:22:48;;;;;;;3.13;0.52;;;21.00;99.90;;;;;;20876116;28;20128;-77
2022/07/14 17:32:49;;;;;;;0.80;0.40;;;20.80;99.90;;;;;;20861739;28;20048;-77
2022/07/14 17:42:50;;;;;;;2.90;0.45;;;20.50;99.90;;;;;;20869910;28;20041;-77
2022/07/14 17:52:51;;;;;;;1.05;0.75;;;20.40;99.90;;;;;;20889230;28;20036;-78
2022/07/14 18:02:52;;;;;;;1.13;0.45;;;20.30;99.90;;;;;;20889094;28;20774;-78
2022/07/14 18:12:53;;;;;;;1.48;0.38;;;20.10;99.90;;;;;;20886123;28;20076;-78
2022/07/14 18:22:54;;;;;;;1.08;0.30;;;19.90;99.90;;;;;;20881698;28;20205;-78
2022/07/14 18:32:55;;;;;;;1.30;0.40;;;19.70;99.90;;;;;;20891252;28;20508;-77
2022/07/14 18:42:56;;;;;;;1.02;0.30;;;19.50;99.90;;;;;;20888345;28;20471;-77
2022/07/14 18:52:57;;;;;;;1.25;0.57;;;19.40;99.90;;;;;;20900784;28;20614;-78
2022/07/14 19:02:58;;;;;;;0.82;0.40;;;19.20;99.90;;;;;;20872303;28;21774;-78
2022/07/14 19:12:59;;;;;;;1.60;0.60;;;19.10;99.90;;;;;;20872171;28;20040;-78
2022/07/14 19:23:02;;;;;;;0.80;0.30;;;18.90;99.90;;;;;;20882832;28;20091;-78
2022/07/14 19:33:05;;;;;;;0.68;0.40;;;18.70;99.90;;;;;;20885357;28;20036;-80
2022/07/14 19:43:07;;;;;;;0.82;0.20;;;18.40;99.90;;;;;;20882515;28;20075;-79
2022/07/14 19:53:08;;;;;;;0.80;0.30;;;18.00;99.90;;;;;;20899059;28;20037;-80
2022/07/14 20:03:09;;;;;;;1.00;0.68;;;17.70;99.90;;;;;;20881423;28;20033;-80
2022/07/14 20:13:10;;;;;;;1.60;0.50;;;17.70;99.90;;;;;;20863881;28;20693;-80
2022/07/14 20:23:12;;;;;;;2.35;0.30;;;17.60;99.90;;;;;;20876370;28;20105;-80
2022/07/14 20:33:13;;;;;;;1.30;0.43;;;17.40;99.90;;;;;;20892016;28;20040;-80
2022/07/14 20:43:15;;;;;;;1.17;0.47;;;17.20;99.90;;;;;;20879301;28;20046;-80
2022/07/14 20:53:17;;;;;;;0.85;0.30;;;17.10;99.90;;;;;;20881125;28;20029;-80
2022/07/14 21:03:18;;;;;;;0.75;0.30;;;17.00;99.90;;;;;;20877365;28;20040;-80
2022/07/14 21:13:20;;;;;;;0.80;0.30;;;16.90;99.90;;;;;;20893538;28;20047;-79
2022/07/14 21:23:21;;;;;;;1.67;0.35;;;16.70;99.90;;;;;;20853613;28;20419;-80
2022/07/14 21:33:22;;;;;;;0.98;0.40;;;16.50;99.90;;;;;;20886712;28;20103;-80
2022/07/14 21:43:23;;;;;;;0.90;0.30;;;16.40;99.90;;;;;;20872535;28;20052;-80
2022/07/14 21:53:24;;;;;;;0.80;0.30;;;16.20;99.90;;;;;;20891948;28;20041;-80
2022/07/14 22:03:25;;;;;;;1.10;0.30;;;16.20;99.90;;;;;;20883582;28;20048;-79
2022/07/14 22:13:28;;;;;;;1.55;0.38;;;16.10;99.90;;;;;;20842859;28;20090;-79
2022/07/14 22:23:30;;;;;;;2.53;0.50;;;15.80;99.90;;;;;;20867720;28;21676;-79
2022/07/14 22:33:31;;;;;;;1.73;0.40;;;15.80;99.90;;;;;;20877575;28;20095;-80
2022/07/14 22:43:32;;;;;;;1.23;0.40;;;15.70;99.90;;;;;;20890348;28;20037;-80
2022/07/14 22:53:33;;;;;;;0.80;0.25;;;15.50;99.90;;;;;;20893065;28;20558;-80
2022/07/14 23:03:34;;;;;;;1.98;0.60;;;15.30;99.90;;;;;;20891056;28;20064;-79
2022/07/14 23:13:35;;;;;;;0.93;0.38;;;15.10;99.90;;;;;;20870285;28;20502;-80
2022/07/14 23:23:36;;;;;;;0.88;0.30;;;14.90;99.90;;;;;;20870249;28;21588;-81
2022/07/14 23:33:38;;;;;;;0.73;0.30;;;14.90;99.90;;;;;;20862738;28;20045;-80
2022/07/14 23:43:39;;;;;;;3.55;0.60;;;14.90;99.90;;;;;;20783369;28;20076;-80
2022/07/14 23:53:40;;;;;;;1.65;0.50;;;14.80;99.90;;;;;;20777411;28;20049;-80
